Terminal Aerodrome Forecast
Issued by NWS

Home | Current Version | Previous Version | Text Only | Print | Product List | Glossary On
Versions: 1 2 3 4 5 6 7 8 9 10 11 12 13 14 15 16 17 18 19
000
FTUS44 KTSA 272300 AAA
TAFFYV
TAF AMD
KFYV 272344Z 2800/2824 VRB06KT P6SM VCTS BKN040CB BKN250
     FM280600 19002KT P6SM SCT250
      TEMPO 2809/2812 3SM BR
     FM281500 21004KT P6SM VCTS BKN050CB=

USA.gov is the U.S. government's official web portal to all federal, state and local government web resources and services.